createdAt,value
2022-12-06T00:02:47.889Z,103825.06
2022-12-06T00:07:50.488Z,103828.28
2022-12-06T00:12:53.213Z,103827.03
2022-12-06T00:17:55.880Z,103826.63
2022-12-06T00:22:58.507Z,103818.16
2022-12-06T00:28:00.948Z,103804.81
2022-12-06T00:33:03.512Z,103809.38
2022-12-06T00:38:06.009Z,103804.41
2022-12-06T00:43:08.508Z,103812.16
2022-12-06T00:48:11.244Z,103816.41
2022-12-06T00:53:13.674Z,103807.75
2022-12-06T00:58:16.222Z,103807.03
2022-12-06T01:03:18.702Z,103797.91
2022-12-06T01:08:21.009Z,103804.88
2022-12-06T01:13:24.899Z,103799.47
2022-12-06T01:18:27.130Z,103778.09
2022-12-06T01:23:29.603Z,103780.94
2022-12-06T01:28:31.900Z,103787.31
2022-12-06T01:33:34.694Z,103793.00
2022-12-06T01:38:37.216Z,103801.50
2022-12-06T01:43:44.199Z,103800.47
2022-12-06T01:48:49.296Z,103803.03
2022-12-06T01:53:53.797Z,103793.00
2022-12-06T01:59:00.104Z,103797.56
2022-12-06T02:04:03.104Z,103803.81
2022-12-06T02:09:08.389Z,103801.63
2022-12-06T02:14:16.485Z,103806.91
2022-12-06T02:19:43.692Z,103807.94
2022-12-06T02:25:07.552Z,103796.28
2022-12-06T02:30:18.962Z,103796.50
2022-12-06T02:35:31.976Z,103774.97
2022-12-06T02:40:42.378Z,103793.47
2022-12-06T02:45:53.853Z,103792.41
2022-12-06T02:51:07.900Z,103806.59
2022-12-06T02:56:10.553Z,103812.59
2022-12-06T03:01:23.677Z,103810.13
2022-12-06T03:06:44.436Z,103805.31
2022-12-06T03:12:12.937Z,103816.19
2022-12-06T03:17:39.045Z,103806.25
2022-12-06T03:22:49.400Z,103807.34
2022-12-06T03:27:53.937Z,103816.03
2022-12-06T03:32:56.592Z,103823.72
2022-12-06T03:38:09.685Z,103824.88
2022-12-06T03:43:12.276Z,103828.53
2022-12-06T03:48:21.365Z,103830.97
2022-12-06T03:53:23.994Z,103833.81
2022-12-06T03:58:26.549Z,103838.31
2022-12-06T04:03:28.881Z,103836.88
2022-12-06T04:08:31.533Z,103826.97
2022-12-06T04:13:34.112Z,103821.66
2022-12-06T04:18:36.633Z,103821.75
2022-12-06T04:23:41.594Z,103828.88
2022-12-06T04:29:02.412Z,103831.38
2022-12-06T04:34:23.730Z,103829.88
2022-12-06T04:39:26.482Z,103831.22
2022-12-06T04:44:28.942Z,103841.97
2022-12-06T04:49:31.474Z,103843.31
2022-12-06T04:54:34.634Z,103850.50
2022-12-06T04:59:42.410Z,103856.22
2022-12-06T05:04:44.828Z,103861.31
2022-12-06T05:09:47.284Z,103849.56
2022-12-06T05:14:49.714Z,103852.25
2022-12-06T05:19:52.119Z,103859.53
2022-12-06T05:24:54.379Z,103854.97
2022-12-06T05:29:56.935Z,103860.91
2022-12-06T05:34:59.470Z,103860.41
2022-12-06T05:40:02.377Z,103867.88
2022-12-06T05:45:06.268Z,103871.19
2022-12-06T05:50:09.278Z,103858.91
2022-12-06T05:55:11.770Z,103852.84
2022-12-06T06:00:16.191Z,103861.06
2022-12-06T06:05:21.632Z,103855.09
2022-12-06T06:10:24.748Z,103857.38
2022-12-06T06:15:27.230Z,103875.44
2022-12-06T06:20:29.858Z,103873.91
2022-12-06T06:25:32.384Z,103873.63
2022-12-06T06:30:34.894Z,103882.47
2022-12-06T06:35:38.953Z,103885.84
2022-12-06T06:40:41.620Z,103888.91
2022-12-06T06:45:58.624Z,103892.38
2022-12-06T06:51:10.047Z,103882.03
2022-12-06T06:56:12.529Z,103884.06
2022-12-06T07:01:19.257Z,103887.31
2022-12-06T07:06:21.838Z,103890.00
2022-12-06T07:11:24.311Z,103895.56
2022-12-06T07:16:26.805Z,103897.63
2022-12-06T07:21:29.339Z,103888.44
2022-12-06T07:26:31.885Z,103894.97
2022-12-06T07:31:34.814Z,103894.28
2022-12-06T07:36:37.495Z,103881.50
2022-12-06T07:41:58.805Z,103881.50
2022-12-06T07:47:24.547Z,103869.63
2022-12-06T07:52:31.802Z,103864.06
2022-12-06T07:57:38.666Z,103873.19
2022-12-06T08:02:45.852Z,103876.09
2022-12-06T08:07:48.460Z,103869.00
2022-12-06T08:12:50.996Z,103881.56
2022-12-06T08:17:53.728Z,103852.69
2022-12-06T08:22:56.161Z,103867.50
2022-12-06T08:27:58.616Z,103860.78
2022-12-06T08:33:01.139Z,103853.34
2022-12-06T08:38:03.731Z,103861.59
2022-12-06T08:43:06.483Z,103860.59
2022-12-06T08:48:09.032Z,103858.50
2022-12-06T08:53:21.697Z,103855.44
2022-12-06T08:58:24.211Z,103846.13
2022-12-06T09:03:26.960Z,103834.50
2022-12-06T09:08:29.435Z,103819.06
2022-12-06T09:13:32.049Z,103815.94
2022-12-06T09:18:34.785Z,103803.13
2022-12-06T09:23:40.385Z,103807.19
2022-12-06T09:28:44.869Z,103781.94
2022-12-06T09:33:47.713Z,103783.44
2022-12-06T09:38:58.614Z,103786.06
2022-12-06T09:44:13.097Z,103782.34
2022-12-06T09:49:54.202Z,103774.25
2022-12-06T09:55:23.563Z,103768.69
2022-12-06T10:00:30.184Z,103744.91
2022-12-06T10:05:35.914Z,103765.72
2022-12-06T10:11:20.012Z,103761.97
2022-12-06T10:16:36.801Z,103758.94
2022-12-06T10:22:17.666Z,103756.75
2022-12-06T10:27:34.944Z,103760.56
2022-12-06T10:32:54.611Z,103750.00
2022-12-06T10:38:12.420Z,103758.81
2022-12-06T10:43:48.091Z,103753.66
2022-12-06T10:49:06.915Z,103752.41
2022-12-06T10:54:41.301Z,103745.56
2022-12-06T10:59:54.829Z,103737.13
2022-12-06T11:05:03.078Z,103729.38
2022-12-06T11:10:19.221Z,103736.69
2022-12-06T11:15:27.085Z,103735.03
2022-12-06T11:20:38.333Z,103728.84
2022-12-06T11:26:07.037Z,103716.19
2022-12-06T11:31:50.997Z,103707.47
2022-12-06T11:37:00.200Z,103717.53
2022-12-06T11:42:05.190Z,103711.81
2022-12-06T11:47:08.193Z,103715.28
2022-12-06T11:52:44.362Z,103701.13
2022-12-06T11:57:58.669Z,103720.38
2022-12-06T12:03:01.030Z,103719.69
2022-12-06T12:08:32.724Z,103714.28
2022-12-06T12:13:44.959Z,103716.00
2022-12-06T12:19:17.112Z,103703.78
2022-12-06T12:25:18.452Z,103714.22
2022-12-06T12:30:22.675Z,103716.53
2022-12-06T12:35:28.363Z,103714.44
2022-12-06T12:40:33.908Z,103714.59
2022-12-06T12:45:36.566Z,103724.75
2022-12-06T12:50:39.132Z,103725.94
2022-12-06T12:55:42.171Z,103716.38
2022-12-06T13:00:48.344Z,103735.16
2022-12-06T13:05:51.842Z,103738.34
2022-12-06T13:10:59.494Z,103741.66
2022-12-06T13:16:10.144Z,103740.53
2022-12-06T13:21:41.568Z,103739.59
2022-12-06T13:26:48.613Z,103739.59
2022-12-06T13:31:54.565Z,103719.59
2022-12-06T13:36:57.264Z,103728.78
2022-12-06T13:42:18.043Z,103738.34
2022-12-06T13:47:29.375Z,103743.78
2022-12-06T13:52:43.825Z,103736.81
2022-12-06T13:57:46.166Z,103732.78
2022-12-06T14:02:49.110Z,103732.44
2022-12-06T14:07:58.418Z,103736.06
2022-12-06T14:13:01.936Z,103722.19
2022-12-06T14:18:11.054Z,103734.41
2022-12-06T14:23:24.598Z,103725.53
2022-12-06T14:28:27.051Z,103735.53
2022-12-06T14:33:29.783Z,103730.91
2022-12-06T14:38:32.315Z,103730.91
2022-12-06T14:43:35.764Z,103725.47
2022-12-06T14:49:11.248Z,103730.56
2022-12-06T14:54:42.457Z,103723.97
2022-12-06T15:00:14.282Z,103726.53
2022-12-06T15:05:44.759Z,103729.84
2022-12-06T15:11:04.900Z,103727.97
2022-12-06T15:16:10.364Z,103737.81
2022-12-06T15:21:17.902Z,103732.53
2022-12-06T15:26:22.384Z,103742.22
2022-12-06T15:31:27.524Z,103741.88
2022-12-06T15:36:33.453Z,103738.25
2022-12-06T15:41:38.463Z,103744.81
2022-12-06T15:46:41.646Z,103741.28
2022-12-06T15:51:44.877Z,103746.56
2022-12-06T15:56:47.893Z,103739.28
2022-12-06T16:01:51.454Z,103738.94
2022-12-06T16:06:53.944Z,103736.78
2022-12-06T16:11:56.852Z,103743.81
2022-12-06T16:16:59.348Z,103748.19
2022-12-06T16:22:01.832Z,103749.34
2022-12-06T16:27:04.332Z,103759.56
2022-12-06T16:32:07.837Z,103756.78
2022-12-06T16:37:11.891Z,103741.66
2022-12-06T16:42:14.474Z,103749.91
2022-12-06T16:52:21.460Z,103755.25
2022-12-06T16:57:24.073Z,103757.56
2022-12-06T17:02:32.632Z,103765.88
2022-12-06T17:07:42.513Z,103775.06
2022-12-06T17:12:46.459Z,103761.00
2022-12-06T17:17:49.415Z,103764.50
2022-12-06T17:22:51.943Z,103756.13
2022-12-06T17:27:54.874Z,103762.44
2022-12-06T17:32:57.401Z,103751.47
2022-12-06T17:38:00.825Z,103759.25
2022-12-06T17:43:04.231Z,103757.22
2022-12-06T17:48:06.895Z,103759.38
2022-12-06T17:53:10.475Z,103770.66
2022-12-06T17:58:12.994Z,103767.50
2022-12-06T18:03:15.543Z,103769.50
2022-12-06T18:08:18.104Z,103765.19
2022-12-06T18:13:20.571Z,103776.28
2022-12-06T18:18:23.188Z,103773.75
2022-12-06T18:23:25.654Z,103774.91
2022-12-06T18:28:28.261Z,103769.78
2022-12-06T18:33:36.656Z,103769.47
2022-12-06T18:38:39.011Z,103764.63
2022-12-06T18:43:42.491Z,103759.41
2022-12-06T18:48:51.347Z,103760.44
2022-12-06T18:53:57.027Z,103746.00
2022-12-06T18:59:04.339Z,103763.78
2022-12-06T19:04:09.590Z,103759.34
2022-12-06T19:09:16.467Z,103753.94
2022-12-06T19:14:19.080Z,103750.34
2022-12-06T19:19:26.973Z,103754.09
2022-12-06T19:24:30.202Z,103755.47
2022-12-06T19:29:32.725Z,103758.75
2022-12-06T19:34:35.238Z,103757.16
2022-12-06T19:39:38.620Z,103771.78
2022-12-06T19:44:41.147Z,103771.34
2022-12-06T19:49:43.629Z,103771.41
2022-12-06T19:54:46.144Z,103754.91
2022-12-06T19:59:48.642Z,103768.28
2022-12-06T20:04:51.031Z,103760.97
2022-12-06T20:09:53.578Z,103751.47
2022-12-06T20:14:56.090Z,103755.06
2022-12-06T20:20:01.726Z,103753.22
2022-12-06T20:25:06.303Z,103754.38
2022-12-06T20:30:09.844Z,103750.44
2022-12-06T20:35:12.429Z,103750.66
2022-12-06T20:40:14.945Z,103756.44
2022-12-06T20:45:18.944Z,103751.59
2022-12-06T20:50:22.521Z,103760.56
2022-12-06T20:55:25.063Z,103759.19
2022-12-06T21:00:27.502Z,103749.09
2022-12-06T21:05:29.817Z,103757.56
2022-12-06T21:10:32.236Z,103731.66
2022-12-06T21:15:34.824Z,103751.13
2022-12-06T21:20:40.506Z,103749.53
2022-12-06T21:25:42.925Z,103754.66
2022-12-06T21:30:53.082Z,103751.06
2022-12-06T21:35:55.917Z,103744.56
2022-12-06T21:41:08.373Z,103728.31
2022-12-06T21:46:14.170Z,103722.56
2022-12-06T21:51:17.047Z,103727.75
2022-12-06T21:56:22.189Z,103712.25
2022-12-06T22:01:29.882Z,103708.88
2022-12-06T22:06:32.827Z,103699.13
2022-12-06T22:11:35.809Z,103711.63
2022-12-06T22:16:38.327Z,103708.00
2022-12-06T22:21:40.855Z,103707.84
2022-12-06T22:26:43.315Z,103706.31
2022-12-06T22:31:46.295Z,103712.41
2022-12-06T22:36:49.154Z,103706.97
2022-12-06T22:41:54.097Z,103705.72
2022-12-06T22:46:56.626Z,103708.81
2022-12-06T22:52:02.127Z,103706.03
2022-12-06T22:57:04.607Z,103706.66
2022-12-06T23:02:07.212Z,103708.94
2022-12-06T23:07:09.723Z,103713.22
2022-12-06T23:12:12.205Z,103717.50
2022-12-06T23:17:14.694Z,103712.38
2022-12-06T23:22:17.194Z,103720.94
2022-12-06T23:27:19.648Z,103703.22
2022-12-06T23:32:22.198Z,103702.34
2022-12-06T23:37:24.632Z,103699.06
2022-12-06T23:42:28.244Z,103694.66
2022-12-06T23:47:30.614Z,103700.59
2022-12-06T23:52:32.912Z,103688.88
2022-12-06T23:57:35.374Z,103684.63
